createdAt,value
2018-03-31T00:01:05.604Z,91.20
2018-03-31T00:03:33.196Z,90.80
2018-03-31T00:06:00.770Z,91.10
2018-03-31T00:08:28.346Z,90.90
2018-03-31T00:10:55.910Z,91.20
2018-03-31T00:13:23.468Z,91.50
2018-03-31T00:15:51.023Z,91.40
2018-03-31T00:18:18.592Z,91.30
2018-03-31T00:20:46.169Z,91.30
2018-03-31T00:23:13.738Z,91.50
2018-03-31T00:25:42.062Z,92.10
2018-03-31T00:28:09.620Z,92.00
2018-03-31T00:30:37.194Z,91.70
2018-03-31T00:33:04.822Z,92.30
2018-03-31T00:35:32.348Z,92.20
2018-03-31T00:37:59.936Z,92.10
2018-03-31T00:40:27.489Z,92.00
2018-03-31T00:42:55.104Z,92.80
2018-03-31T00:45:23.437Z,92.40
2018-03-31T00:47:51.318Z,92.40
2018-03-31T00:50:18.880Z,91.80
2018-03-31T00:52:46.445Z,92.60
2018-03-31T00:55:14.015Z,92.40
2018-03-31T00:57:41.584Z,92.00
2018-03-31T01:00:09.236Z,92.10
2018-03-31T01:02:36.744Z,92.40
2018-03-31T01:05:04.308Z,92.00
2018-03-31T01:07:31.869Z,91.80
2018-03-31T01:09:59.452Z,91.80
2018-03-31T01:12:27.048Z,92.70
2018-03-31T01:14:54.621Z,92.90
2018-03-31T01:17:22.276Z,93.20
2018-03-31T01:19:49.882Z,92.80
2018-03-31T01:22:17.441Z,91.80
2018-03-31T01:24:45.003Z,91.30
2018-03-31T01:27:12.571Z,92.50
2018-03-31T01:29:40.162Z,92.40
2018-03-31T01:32:07.971Z,91.80
2018-03-31T01:34:35.538Z,91.20
2018-03-31T01:37:03.088Z,92.20
2018-03-31T01:39:30.664Z,92.40
2018-03-31T01:41:58.216Z,91.20
2018-03-31T01:44:25.791Z,91.30
2018-03-31T01:47:00.408Z,91.30
2018-03-31T01:49:28.449Z,92.70
2018-03-31T01:51:56.022Z,92.80
2018-03-31T01:54:23.977Z,93.00
2018-03-31T01:56:52.546Z,92.60
2018-03-31T02:02:11.366Z,91.70
2018-03-31T02:04:38.985Z,91.70
2018-03-31T02:07:06.534Z,92.00
2018-03-31T02:09:35.804Z,91.50
2018-03-31T02:12:03.355Z,91.70
2018-03-31T02:17:40.300Z,92.10
2018-03-31T02:20:08.001Z,92.10
2018-03-31T02:22:35.684Z,91.90
2018-03-31T02:25:03.549Z,91.60
2018-03-31T02:27:31.087Z,92.50
2018-03-31T02:29:58.706Z,92.70
2018-03-31T02:35:07.904Z,93.20
2018-03-31T02:37:37.101Z,93.30
2018-03-31T02:40:06.364Z,92.80
2018-03-31T02:42:34.015Z,92.80
2018-03-31T02:45:02.473Z,93.00
2018-03-31T02:47:30.049Z,92.90
2018-03-31T02:49:57.603Z,93.10
2018-03-31T02:52:25.174Z,92.80
2018-03-31T02:54:52.723Z,93.00
2018-03-31T02:57:20.287Z,93.30
2018-03-31T02:59:47.939Z,93.10
2018-03-31T03:02:15.579Z,93.50
2018-03-31T03:04:43.469Z,94.00
2018-03-31T03:07:11.905Z,93.60
2018-03-31T03:09:39.481Z,93.50
2018-03-31T03:12:07.936Z,93.50
2018-03-31T03:14:35.531Z,93.80
2018-03-31T03:17:03.107Z,93.60
2018-03-31T03:19:30.660Z,93.60
2018-03-31T03:21:59.700Z,93.00
2018-03-31T03:24:27.262Z,92.90
2018-03-31T03:26:54.930Z,92.90
2018-03-31T03:29:22.500Z,93.40
2018-03-31T03:31:50.184Z,93.50
2018-03-31T03:34:17.740Z,94.00
2018-03-31T03:36:45.333Z,93.70
2018-03-31T03:39:13.281Z,93.50
2018-03-31T03:41:40.868Z,93.80
2018-03-31T03:44:08.513Z,93.50
2018-03-31T03:46:36.900Z,93.60
2018-03-31T03:49:05.240Z,93.90
2018-03-31T03:51:33.067Z,93.90
2018-03-31T03:54:00.895Z,93.70
2018-03-31T03:56:28.819Z,93.70
2018-03-31T03:58:56.369Z,93.70
2018-03-31T04:01:24.459Z,93.10
2018-03-31T04:03:53.146Z,93.10
2018-03-31T04:06:21.520Z,93.10
2018-03-31T04:08:49.093Z,93.10
2018-03-31T04:11:16.715Z,93.20
2018-03-31T04:13:44.358Z,93.30
2018-03-31T04:16:12.657Z,93.40
2018-03-31T04:18:40.379Z,93.50
2018-03-31T04:21:07.955Z,93.70
2018-03-31T04:23:36.739Z,93.60
2018-03-31T04:26:05.066Z,93.50
2018-03-31T04:28:32.632Z,93.40
2018-03-31T04:31:00.197Z,93.50
2018-03-31T04:33:27.816Z,93.90
2018-03-31T04:35:55.371Z,94.20
2018-03-31T04:38:22.933Z,94.00
2018-03-31T04:40:50.511Z,94.00
2018-03-31T04:43:18.074Z,93.70
2018-03-31T04:45:47.769Z,93.80
2018-03-31T04:48:15.393Z,93.70
2018-03-31T04:50:43.868Z,93.30
2018-03-31T04:53:11.436Z,93.10
2018-03-31T04:55:39.059Z,92.50
2018-03-31T04:58:06.733Z,92.80
2018-03-31T05:00:34.322Z,92.90
2018-03-31T05:03:01.907Z,92.70
2018-03-31T05:05:29.480Z,92.60
2018-03-31T05:07:57.052Z,92.80
2018-03-31T05:10:24.625Z,93.30
2018-03-31T05:12:52.274Z,93.50
2018-03-31T05:15:19.828Z,93.60
2018-03-31T05:17:48.185Z,93.80
2018-03-31T05:20:15.760Z,93.80
2018-03-31T05:22:43.351Z,93.60
2018-03-31T05:25:10.984Z,93.20
2018-03-31T05:27:38.798Z,93.00
2018-03-31T05:30:06.316Z,92.50
2018-03-31T05:32:33.920Z,92.70
2018-03-31T05:35:01.502Z,93.20
2018-03-31T05:37:29.064Z,93.40
2018-03-31T05:39:56.716Z,93.60
2018-03-31T05:42:24.335Z,93.70
2018-03-31T05:44:51.957Z,93.80
2018-03-31T05:47:19.542Z,94.10
2018-03-31T05:49:47.138Z,93.80
2018-03-31T05:52:14.697Z,94.10
2018-03-31T05:54:42.272Z,93.70
2018-03-31T05:57:09.842Z,93.80
2018-03-31T05:59:37.411Z,94.00
2018-03-31T06:02:05.018Z,94.20
2018-03-31T06:04:32.607Z,93.80
2018-03-31T06:07:00.253Z,94.00
2018-03-31T06:09:27.821Z,94.10
2018-03-31T06:11:55.398Z,93.80
2018-03-31T06:14:22.951Z,93.80
2018-03-31T06:16:50.524Z,93.90
2018-03-31T06:19:18.077Z,93.60
2018-03-31T06:21:45.645Z,93.90
2018-03-31T06:24:14.116Z,93.60
2018-03-31T06:26:41.807Z,94.30
2018-03-31T06:29:09.363Z,93.40
2018-03-31T06:31:36.949Z,93.80
2018-03-31T06:34:04.503Z,93.30
2018-03-31T06:36:32.094Z,93.40
2018-03-31T06:38:59.676Z,93.30
2018-03-31T06:41:27.255Z,93.70
2018-03-31T06:43:54.893Z,93.70
2018-03-31T06:46:23.179Z,93.40
2018-03-31T06:48:50.888Z,93.40
2018-03-31T06:51:18.437Z,93.90
2018-03-31T06:53:46.001Z,93.30
2018-03-31T06:56:13.555Z,93.60
2018-03-31T06:58:41.134Z,93.30
2018-03-31T07:01:08.709Z,93.30
2018-03-31T07:03:42.856Z,92.90
2018-03-31T07:06:10.433Z,93.10
2018-03-31T07:08:38.013Z,92.70
2018-03-31T07:11:05.592Z,93.20
2018-03-31T07:13:33.579Z,92.10
2018-03-31T07:16:01.129Z,92.10
2018-03-31T07:18:28.698Z,91.30
2018-03-31T07:20:57.065Z,90.80
2018-03-31T07:23:25.396Z,89.90
2018-03-31T07:25:53.258Z,89.90
2018-03-31T07:28:20.944Z,89.10
2018-03-31T07:30:48.491Z,88.10
2018-03-31T07:33:16.833Z,88.70
2018-03-31T07:35:44.410Z,88.70
2018-03-31T07:38:12.020Z,89.60
2018-03-31T07:40:40.333Z,89.30
2018-03-31T07:43:07.901Z,89.20
2018-03-31T07:45:35.473Z,86.70
2018-03-31T07:48:03.063Z,86.40
2018-03-31T07:50:30.636Z,88.20
2018-03-31T07:53:02.462Z,85.80
2018-03-31T07:55:30.128Z,87.90
2018-03-31T07:57:57.705Z,87.40
2018-03-31T08:00:26.364Z,87.30
2018-03-31T08:02:53.925Z,87.30
2018-03-31T08:05:21.493Z,87.50
2018-03-31T08:07:49.057Z,86.00
2018-03-31T08:10:19.836Z,86.10
2018-03-31T08:12:48.696Z,85.90
2018-03-31T08:15:16.265Z,87.20
2018-03-31T08:17:43.853Z,84.60
2018-03-31T08:20:11.404Z,83.60
2018-03-31T08:22:38.968Z,82.60
2018-03-31T08:25:06.543Z,84.40
2018-03-31T08:27:34.126Z,83.80
2018-03-31T08:30:01.694Z,81.70
2018-03-31T08:32:29.271Z,81.50
2018-03-31T08:34:56.817Z,83.10
2018-03-31T08:37:24.485Z,83.40
2018-03-31T08:39:52.049Z,82.60
2018-03-31T08:42:19.630Z,83.90
2018-03-31T08:44:47.221Z,80.20
2018-03-31T08:47:14.802Z,80.30
2018-03-31T08:49:42.374Z,78.50
2018-03-31T08:52:10.689Z,79.50
2018-03-31T08:54:38.291Z,79.50
2018-03-31T08:57:05.873Z,79.00
2018-03-31T08:59:33.462Z,79.80
2018-03-31T09:02:01.012Z,78.20
2018-03-31T09:04:28.584Z,78.60
2018-03-31T09:06:56.915Z,78.80
2018-03-31T09:09:24.501Z,78.80
2018-03-31T09:11:52.096Z,78.00
2018-03-31T09:14:19.656Z,79.10
2018-03-31T09:16:47.240Z,80.10
2018-03-31T09:19:14.773Z,81.30
2018-03-31T09:21:42.346Z,79.90
2018-03-31T09:24:09.915Z,77.10
2018-03-31T09:26:37.467Z,79.30
2018-03-31T09:29:05.036Z,78.00
2018-03-31T09:31:32.598Z,78.50
2018-03-31T09:34:00.160Z,76.60
2018-03-31T09:36:27.739Z,72.80
2018-03-31T09:38:55.326Z,71.70
2018-03-31T09:41:22.910Z,72.40
2018-03-31T09:43:50.489Z,73.10
2018-03-31T09:46:18.470Z,70.90
2018-03-31T09:48:46.329Z,71.00
2018-03-31T09:51:13.918Z,71.20
2018-03-31T09:53:42.270Z,69.50
2018-03-31T09:56:10.155Z,70.90
2018-03-31T09:58:38.467Z,69.70
2018-03-31T10:01:07.832Z,70.50
2018-03-31T10:03:36.178Z,68.80
2018-03-31T10:06:03.751Z,68.90
2018-03-31T10:08:31.324Z,66.60
2018-03-31T10:10:58.895Z,67.40
2018-03-31T10:13:26.463Z,67.00
2018-03-31T10:15:54.084Z,69.10
2018-03-31T10:18:21.612Z,72.00
2018-03-31T10:20:49.173Z,67.50
2018-03-31T10:23:16.776Z,65.00
2018-03-31T10:25:44.374Z,63.60
2018-03-31T10:28:12.705Z,63.10
2018-03-31T10:30:40.298Z,63.80
2018-03-31T10:33:07.855Z,60.40
2018-03-31T10:35:35.446Z,62.50
2018-03-31T10:38:03.010Z,58.40
2018-03-31T10:40:30.591Z,57.40
2018-03-31T10:42:58.144Z,56.70
2018-03-31T10:45:25.712Z,58.30
2018-03-31T10:47:53.273Z,54.00
2018-03-31T10:50:20.869Z,52.00
2018-03-31T10:52:48.433Z,50.40
2018-03-31T10:55:16.015Z,50.30
2018-03-31T10:57:43.619Z,53.00
2018-03-31T11:00:11.973Z,54.70
2018-03-31T11:02:39.545Z,54.70
2018-03-31T11:05:07.118Z,55.20
2018-03-31T11:07:34.682Z,54.20
2018-03-31T11:10:03.141Z,54.80
2018-03-31T11:12:30.718Z,56.00
2018-03-31T11:14:58.293Z,53.20
2018-03-31T11:17:25.873Z,56.90
2018-03-31T11:19:53.451Z,55.00
2018-03-31T11:22:21.016Z,55.50
2018-03-31T11:24:48.685Z,56.70
2018-03-31T11:27:16.996Z,50.20
2018-03-31T11:29:44.577Z,50.20
2018-03-31T11:32:12.146Z,49.50
2018-03-31T11:34:39.741Z,53.40
2018-03-31T11:37:09.217Z,52.00
2018-03-31T11:39:37.105Z,48.70
2018-03-31T11:42:05.477Z,45.60
2018-03-31T11:44:37.025Z,46.00
2018-03-31T11:47:08.979Z,45.20
2018-03-31T11:49:38.143Z,44.80
2018-03-31T11:52:06.577Z,45.70
2018-03-31T11:54:37.575Z,45.80
2018-03-31T11:57:08.144Z,46.00
2018-03-31T11:59:37.870Z,46.30
2018-03-31T12:02:08.184Z,46.30
2018-03-31T12:04:36.761Z,45.10
2018-03-31T12:07:05.457Z,43.90
2018-03-31T12:09:34.108Z,42.40
2018-03-31T12:12:01.759Z,40.60
2018-03-31T12:14:31.332Z,41.40
2018-03-31T12:16:59.872Z,41.50
2018-03-31T12:19:28.776Z,40.90
2018-03-31T12:21:59.172Z,40.50
2018-03-31T12:24:32.078Z,38.60
2018-03-31T12:27:01.651Z,39.70
2018-03-31T12:29:32.491Z,38.20
2018-03-31T12:32:06.015Z,38.20
2018-03-31T12:34:34.396Z,37.60
2018-03-31T12:37:01.952Z,37.10
2018-03-31T12:39:29.543Z,39.00
2018-03-31T12:41:57.100Z,40.40
2018-03-31T12:44:24.674Z,42.10
2018-03-31T12:46:52.256Z,42.10
2018-03-31T12:49:19.837Z,42.10
2018-03-31T12:51:47.462Z,41.20
2018-03-31T12:54:14.996Z,39.70
2018-03-31T12:56:42.601Z,38.90
2018-03-31T12:59:10.169Z,39.90
2018-03-31T13:01:37.766Z,38.50
2018-03-31T13:04:05.336Z,38.20
2018-03-31T13:06:32.898Z,39.20
2018-03-31T13:09:00.481Z,38.60
2018-03-31T13:11:28.062Z,38.30
2018-03-31T13:13:55.638Z,41.00
2018-03-31T13:16:27.496Z,40.40
2018-03-31T13:18:55.044Z,36.80
2018-03-31T13:21:22.627Z,35.00
2018-03-31T13:23:53.684Z,35.60
2018-03-31T13:26:22.696Z,37.00
2018-03-31T13:28:50.291Z,37.00
2018-03-31T13:31:36.765Z,37.60
2018-03-31T13:34:04.333Z,38.00
2018-03-31T13:36:31.900Z,39.10
2018-03-31T13:38:59.513Z,40.20
2018-03-31T13:41:27.084Z,41.10
2018-03-31T13:43:54.640Z,40.50
2018-03-31T13:46:22.210Z,40.30
2018-03-31T13:48:49.789Z,39.90
2018-03-31T13:51:17.349Z,40.70
2018-03-31T13:53:46.594Z,41.80
2018-03-31T13:56:14.178Z,43.10
2018-03-31T13:58:41.770Z,41.70
2018-03-31T14:01:09.325Z,41.30
2018-03-31T14:03:36.902Z,40.90
2018-03-31T14:06:04.477Z,41.20
2018-03-31T14:08:32.049Z,41.40
2018-03-31T14:11:00.393Z,40.80
2018-03-31T14:13:27.992Z,40.70
2018-03-31T14:15:55.628Z,39.60
2018-03-31T14:18:23.192Z,38.50
2018-03-31T14:20:50.767Z,38.50
2018-03-31T14:23:18.377Z,38.40
2018-03-31T14:25:45.932Z,38.90
2018-03-31T14:28:13.602Z,39.00
2018-03-31T14:30:41.990Z,41.00
2018-03-31T14:33:09.591Z,40.90
2018-03-31T14:35:37.148Z,39.30
2018-03-31T14:38:04.711Z,39.60
2018-03-31T14:40:32.323Z,39.10
2018-03-31T14:42:59.900Z,37.00
2018-03-31T14:45:27.464Z,36.00
2018-03-31T14:47:55.027Z,35.30
2018-03-31T14:50:22.612Z,36.00
2018-03-31T14:52:50.234Z,36.20
2018-03-31T14:55:17.821Z,35.70
2018-03-31T14:57:45.402Z,36.90
2018-03-31T15:00:12.964Z,38.30
2018-03-31T15:02:40.544Z,38.80
2018-03-31T15:05:08.148Z,39.30
2018-03-31T15:07:36.488Z,38.00
2018-03-31T15:10:05.086Z,38.60
2018-03-31T15:12:32.667Z,38.70
2018-03-31T15:15:01.096Z,40.50
2018-03-31T15:17:28.668Z,40.60
2018-03-31T15:19:56.263Z,40.80
2018-03-31T15:22:23.845Z,40.40
2018-03-31T15:24:51.428Z,40.80
2018-03-31T15:27:19.006Z,41.00
2018-03-31T15:29:46.603Z,41.00
2018-03-31T15:32:14.177Z,41.60
2018-03-31T15:34:41.754Z,39.50
2018-03-31T15:37:09.338Z,38.10
2018-03-31T15:39:36.944Z,37.60
2018-03-31T15:42:04.566Z,37.70
2018-03-31T15:44:32.186Z,38.00
2018-03-31T15:46:59.759Z,38.00
2018-03-31T15:49:27.361Z,37.10
2018-03-31T15:51:54.942Z,35.20
2018-03-31T15:54:22.512Z,34.70
2018-03-31T15:56:50.091Z,33.80
2018-03-31T15:59:17.664Z,34.60
2018-03-31T16:01:45.279Z,34.40
2018-03-31T16:04:12.855Z,35.10
2018-03-31T16:06:41.207Z,35.70
2018-03-31T16:09:08.785Z,35.70
2018-03-31T16:11:36.368Z,36.40
2018-03-31T16:14:04.002Z,37.20
2018-03-31T16:16:32.020Z,37.70
2018-03-31T16:18:59.581Z,37.40
2018-03-31T16:21:27.180Z,37.90
2018-03-31T16:23:55.529Z,39.20
2018-03-31T16:26:23.118Z,39.20
2018-03-31T16:28:50.681Z,40.40
2018-03-31T16:31:18.260Z,41.00
2018-03-31T16:33:45.845Z,41.10
2018-03-31T16:36:13.446Z,41.50
2018-03-31T16:38:43.209Z,41.70
2018-03-31T16:41:11.672Z,42.60
2018-03-31T16:43:39.249Z,42.80
2018-03-31T16:46:06.861Z,43.50
2018-03-31T16:48:35.180Z,43.60
2018-03-31T16:51:03.521Z,45.00
2018-03-31T16:53:31.134Z,45.00
2018-03-31T16:55:59.491Z,44.30
2018-03-31T16:58:27.086Z,44.20
2018-03-31T17:00:54.646Z,44.70
2018-03-31T17:03:22.233Z,44.90
2018-03-31T17:05:49.802Z,45.40
2018-03-31T17:08:17.382Z,46.00
2018-03-31T17:10:45.716Z,45.70
2018-03-31T17:13:13.295Z,45.70
2018-03-31T17:15:40.877Z,46.60
2018-03-31T17:18:08.466Z,46.80
2018-03-31T17:20:36.058Z,47.20
2018-03-31T17:23:03.636Z,47.00
2018-03-31T17:25:32.016Z,47.60
2018-03-31T17:28:00.453Z,47.60
2018-03-31T17:30:28.033Z,48.30
2018-03-31T17:32:55.618Z,48.30
2018-03-31T17:35:23.248Z,48.60
2018-03-31T17:37:50.800Z,49.30
2018-03-31T17:40:19.163Z,51.10
2018-03-31T17:42:46.862Z,50.50
2018-03-31T17:45:15.235Z,51.60
2018-03-31T17:47:42.806Z,51.60
2018-03-31T17:50:10.436Z,52.60
2018-03-31T17:52:38.021Z,52.80
2018-03-31T17:55:06.343Z,53.50
2018-03-31T17:57:33.935Z,53.50
2018-03-31T18:00:02.295Z,54.20
2018-03-31T18:02:30.810Z,54.10
2018-03-31T18:04:58.386Z,55.40
2018-03-31T18:07:25.983Z,56.60
2018-03-31T18:09:53.545Z,56.60
2018-03-31T18:12:21.898Z,56.60
2018-03-31T18:14:49.514Z,56.50
2018-03-31T18:17:17.449Z,56.80
2018-03-31T18:19:45.031Z,57.30
2018-03-31T18:22:12.677Z,57.80
2018-03-31T18:24:41.708Z,58.50
2018-03-31T18:27:09.295Z,59.10
2018-03-31T18:29:36.900Z,59.20
2018-03-31T18:32:04.472Z,59.40
2018-03-31T18:34:32.092Z,59.80
2018-03-31T18:36:59.706Z,60.60
2018-03-31T18:39:27.249Z,60.90
2018-03-31T18:41:54.822Z,61.70
2018-03-31T18:44:22.792Z,62.40
2018-03-31T18:46:50.353Z,62.80
2018-03-31T18:49:17.934Z,63.20
2018-03-31T18:51:45.534Z,64.30
2018-03-31T18:54:13.864Z,65.00
2018-03-31T18:56:41.505Z,65.00
2018-03-31T18:59:09.044Z,65.40
2018-03-31T19:01:36.617Z,65.40
2018-03-31T19:04:04.190Z,66.20
2018-03-31T19:06:31.744Z,65.60
2018-03-31T19:08:59.327Z,65.30
2018-03-31T19:11:26.916Z,66.00
2018-03-31T19:13:54.492Z,66.00
2018-03-31T19:16:28.056Z,65.80
2018-03-31T19:18:55.644Z,65.60
2018-03-31T19:21:23.210Z,66.00
2018-03-31T19:23:50.807Z,66.50
2018-03-31T19:26:18.365Z,66.20
2018-03-31T19:28:45.953Z,66.50
2018-03-31T19:31:13.519Z,66.80
2018-03-31T19:33:41.097Z,69.10
2018-03-31T19:36:14.442Z,67.80
2018-03-31T19:38:42.028Z,67.60
2018-03-31T19:41:09.610Z,68.50
2018-03-31T19:43:37.178Z,68.70
2018-03-31T19:46:04.781Z,68.30
2018-03-31T19:48:32.357Z,69.10
2018-03-31T19:50:59.935Z,68.90
2018-03-31T19:53:27.525Z,68.60
2018-03-31T19:55:55.089Z,68.70
2018-03-31T19:58:22.697Z,69.00
2018-03-31T20:00:50.285Z,69.20
2018-03-31T20:03:17.886Z,68.80
2018-03-31T20:05:45.444Z,69.30
2018-03-31T20:08:13.028Z,69.70
2018-03-31T20:10:40.580Z,70.40
2018-03-31T20:13:08.155Z,70.20
2018-03-31T20:15:35.769Z,71.40
2018-03-31T20:18:03.367Z,71.50
2018-03-31T20:20:30.957Z,71.80
2018-03-31T20:22:58.523Z,71.80
2018-03-31T20:25:26.119Z,72.20
2018-03-31T20:27:53.698Z,72.20
2018-03-31T20:30:21.300Z,73.10
2018-03-31T20:32:49.624Z,72.30
2018-03-31T20:35:17.976Z,73.00
2018-03-31T20:37:45.599Z,72.90
2018-03-31T20:40:13.908Z,73.50
2018-03-31T20:42:41.494Z,72.70
2018-03-31T20:45:09.056Z,72.00
2018-03-31T20:47:36.635Z,72.20
2018-03-31T20:50:04.259Z,72.00
2018-03-31T20:52:31.802Z,72.40
2018-03-31T20:54:59.385Z,72.40
2018-03-31T20:57:27.706Z,73.50
2018-03-31T20:59:55.286Z,73.50
2018-03-31T21:02:22.845Z,73.50
2018-03-31T21:04:51.235Z,73.20
2018-03-31T21:07:18.832Z,73.20
2018-03-31T21:09:46.429Z,73.30
2018-03-31T21:12:13.992Z,73.10
2018-03-31T21:14:41.570Z,74.30
2018-03-31T21:17:09.590Z,74.10
2018-03-31T21:19:37.165Z,75.00
2018-03-31T21:22:05.138Z,74.90
2018-03-31T21:24:32.668Z,75.20
2018-03-31T21:27:00.235Z,75.50
2018-03-31T21:29:27.821Z,75.10
2018-03-31T21:31:55.415Z,75.30
2018-03-31T21:34:23.769Z,75.00
2018-03-31T21:36:51.321Z,75.00
2018-03-31T21:39:18.902Z,75.20
2018-03-31T21:41:46.465Z,74.60
2018-03-31T21:44:14.453Z,74.90
2018-03-31T21:46:44.131Z,74.80
2018-03-31T21:49:12.489Z,75.20
2018-03-31T21:51:40.175Z,75.20
2018-03-31T21:54:07.781Z,75.30
2018-03-31T21:56:35.631Z,75.30
2018-03-31T21:59:03.534Z,75.20
2018-03-31T22:01:31.451Z,75.40
2018-03-31T22:03:59.017Z,75.50
2018-03-31T22:06:27.305Z,76.20
2018-03-31T22:08:54.874Z,76.70
2018-03-31T22:11:22.466Z,76.50
2018-03-31T22:13:55.927Z,76.00
2018-03-31T22:16:24.211Z,75.40
2018-03-31T22:18:52.549Z,75.50
2018-03-31T22:21:20.178Z,75.50
2018-03-31T22:23:48.642Z,75.10
2018-03-31T22:26:16.235Z,75.10
2018-03-31T22:28:43.796Z,75.30
2018-03-31T22:31:12.146Z,75.30
2018-03-31T22:33:39.734Z,75.30
2018-03-31T22:36:07.988Z,74.70
2018-03-31T22:38:35.677Z,74.90
2018-03-31T22:41:03.266Z,74.90
2018-03-31T22:43:30.852Z,75.00
2018-03-31T22:45:58.521Z,74.60
2018-03-31T22:48:26.101Z,74.80
2018-03-31T22:50:53.705Z,74.70
2018-03-31T22:53:21.282Z,75.30
2018-03-31T22:55:48.861Z,74.70
2018-03-31T22:58:16.438Z,74.70
2018-03-31T23:00:44.722Z,74.70
2018-03-31T23:03:12.299Z,75.00
2018-03-31T23:05:39.889Z,74.80
2018-03-31T23:08:07.462Z,74.60
2018-03-31T23:10:35.091Z,72.30
2018-03-31T23:13:02.684Z,74.60
2018-03-31T23:15:30.278Z,74.10
2018-03-31T23:17:57.839Z,74.70
2018-03-31T23:20:25.441Z,73.20
2018-03-31T23:22:53.007Z,73.20
2018-03-31T23:25:20.584Z,73.30
2018-03-31T23:27:48.245Z,72.90
2018-03-31T23:30:15.877Z,71.60
2018-03-31T23:32:43.901Z,70.30
2018-03-31T23:35:11.481Z,71.10
2018-03-31T23:37:39.054Z,70.80
2018-03-31T23:40:06.701Z,69.40
2018-03-31T23:42:34.292Z,70.20
2018-03-31T23:45:02.861Z,69.20
2018-03-31T23:47:30.448Z,69.50
2018-03-31T23:49:58.043Z,69.20
2018-03-31T23:52:25.613Z,69.20
2018-03-31T23:54:53.172Z,70.20
2018-03-31T23:57:20.746Z,70.90
2018-03-31T23:59:48.344Z,70.40
